Time;durP1;ratioP1;P1;durP2;ratioP2;P2;SDS_P1;SDS_P2;PMS_P1;PMS_P2;Temp;Humidity;BMP_temperature;BMP_pressure;BME280_temperature;BME280_humidity;BME280_pressure;Samples;Min_cycle;Max_cycle;Signal;HPM_P1;HPM_P2
2023/09/01 00:04:42;;;;;;;2.20;1.70;;;;;;;9.99;96.79;99262.26;432121;1269;288990;-67
2023/09/01 00:14:48;;;;;;;2.00;1.80;;;;;;;9.86;96.83;99270.65;432222;1268;139344;-66
2023/09/01 00:24:54;;;;;;;1.90;1.70;;;;;;;9.72;97.13;99274.17;432434;1268;138952;-67
2023/09/01 00:35:02;;;;;;;3.80;2.00;;;;;;;9.69;97.86;99263.90;432398;1267;139270;-66
2023/09/01 00:45:10;;;;;;;3.30;2.20;;;;;;;9.84;98.81;99259.09;432624;1269;139212;-68
2023/09/01 00:55:16;;;;;;;2.80;2.60;;;;;;;10.14;99.02;99259.90;432792;1268;138909;-66
2023/09/01 01:05:28;;;;;;;2.10;2.00;;;;;;;10.43;99.11;99255.00;432459;1268;139651;-68
2023/09/01 01:15:35;;;;;;;4.60;3.20;;;;;;;10.65;98.91;99255.38;432243;1268;139968;-68
2023/09/01 01:25:47;;;;;;;2.10;2.00;;;;;;;10.70;98.61;99255.28;432603;1267;139701;-67
2023/09/01 01:36:05;;;;;;;3.90;2.20;;;;;;;10.61;98.70;99265.11;432460;1269;139340;-67
2023/09/01 01:46:11;;;;;;;2.10;1.90;;;;;;;10.62;98.81;99264.67;432454;1270;140660;-67
2023/09/01 01:56:17;;;;;;;2.30;2.10;;;;;;;10.52;98.56;99269.79;432131;1267;140273;-66
2023/09/01 02:06:22;;;;;;;2.80;2.60;;;;;;;10.43;99.21;99264.11;432529;1269;139328;-67
2023/09/01 02:16:28;;;;;;;2.00;1.50;;;;;;;10.49;99.40;99263.33;432267;1267;139155;-66
2023/09/01 02:26:35;;;;;;;2.60;2.40;;;;;;;10.49;99.07;99265.64;432638;1270;140379;-66
2023/09/01 02:36:40;;;;;;;2.90;1.90;;;;;;;10.33;98.60;99270.64;432266;1267;139872;-66
2023/09/01 02:46:46;;;;;;;2.30;2.10;;;;;;;10.14;98.70;99283.98;432208;1269;139494;-65
2023/09/01 02:56:52;;;;;;;7.30;2.70;;;;;;;9.98;99.01;99305.16;432254;1269;141404;-67
2023/09/01 03:06:58;;;;;;;3.20;2.60;;;;;;;9.84;99.08;99294.23;432307;1269;140211;-66
2023/09/01 03:17:05;;;;;;;4.20;2.50;;;;;;;9.62;99.12;99285.84;432383;1269;139148;-67
2023/09/01 03:27:10;;;;;;;5.80;3.30;;;;;;;9.44;99.47;99295.89;432355;1269;139199;-67
2023/09/01 03:37:16;;;;;;;8.80;2.80;;;;;;;9.29;99.83;99291.26;432307;1267;140525;-67
2023/09/01 03:47:22;;;;;;;6.00;3.50;;;;;;;9.13;99.94;99301.67;432056;1269;140342;-66
2023/09/01 03:57:28;;;;;;;6.40;3.10;;;;;;;9.06;100.00;99301.39;431978;1268;139897;-66
2023/09/01 04:07:33;;;;;;;6.80;4.10;;;;;;;9.18;100.00;99312.03;432084;1267;140270;-65
2023/09/01 04:17:39;;;;;;;5.40;4.00;;;;;;;9.49;100.00;99320.05;432011;1267;139137;-66
2023/09/01 04:27:45;;;;;;;10.70;4.70;;;;;;;9.78;100.00;99319.27;432042;1270;139584;-66
2023/09/01 04:37:51;;;;;;;6.10;4.20;;;;;;;10.06;100.00;99315.52;432276;1269;139753;-65
2023/09/01 04:47:57;;;;;;;11.50;4.50;;;;;;;10.56;100.00;99314.78;432211;1268;139610;-66
2023/09/01 04:58:03;;;;;;;9.10;4.20;;;;;;;11.13;100.00;99324.38;432594;1265;140074;-66
2023/09/01 05:08:09;;;;;;;5.80;4.30;;;;;;;11.75;100.00;99332.79;432085;1267;139778;-67
2023/09/01 05:18:14;;;;;;;5.70;4.70;;;;;;;12.21;100.00;99339.64;432268;1269;139773;-69
2023/09/01 05:28:21;;;;;;;7.70;3.80;;;;;;;15.55;100.00;99336.94;432299;1267;140599;-68
2023/09/01 05:38:26;;;;;;;2.40;2.20;;;;;;;21.95;97.21;99349.86;432337;1270;139376;-67
2023/09/01 05:48:32;;;;;;;4.70;2.50;;;;;;;26.67;84.97;99360.80;432183;1265;139247;-68
2023/09/01 05:58:38;;;;;;;5.50;2.60;;;;;;;29.83;72.90;99359.91;432209;1269;140025;-67
2023/09/01 06:08:44;;;;;;;2.50;1.70;;;;;;;31.27;63.96;99353.54;431961;1269;140129;-69
2023/09/01 06:18:51;;;;;;;2.00;1.70;;;;;;;34.43;58.69;99348.43;432158;1265;138539;-68
2023/09/01 06:28:57;;;;;;;1.90;1.70;;;;;;;37.12;47.32;99355.65;432357;1270;138946;-68
2023/09/01 06:39:03;;;;;;;4.50;2.10;;;;;;;38.90;41.38;99359.71;431992;1267;138869;-69
2023/09/01 06:49:09;;;;;;;1.90;1.40;;;;;;;40.65;37.17;99367.61;431959;1267;138585;-68
2023/09/01 06:59:14;;;;;;;1.20;1.10;;;;;;;41.58;33.83;99379.32;431957;1268;138598;-68
2023/09/01 07:09:20;;;;;;;1.30;1.10;;;;;;;42.66;30.95;99378.98;431948;1268;139565;-68
2023/09/01 07:19:26;;;;;;;3.20;1.80;;;;;;;44.41;28.98;99376.42;431737;1266;141396;-69
2023/09/01 07:29:31;;;;;;;2.60;1.10;;;;;;;46.56;27.13;99381.16;438424;1265;139762;-68
2023/09/01 07:39:37;;;;;;;1.60;1.50;;;;;;;47.75;24.69;99379.02;431291;1269;140358;-69
2023/09/01 07:49:43;;;;;;;1.80;1.00;;;;;;;48.17;23.40;99374.16;432192;1267;139717;-69
2023/09/01 07:59:49;;;;;;;1.50;1.20;;;;;;;48.74;22.42;99381.20;432025;1267;138741;-68
2023/09/01 08:09:55;;;;;;;1.60;1.50;;;;;;;48.92;21.32;99379.14;432005;1269;138562;-68
2023/09/01 08:20:03;;;;;;;3.80;1.20;;;;;;;48.66;20.76;99377.42;432032;1265;138555;-68
2023/09/01 08:30:11;;;;;;;1.20;0.90;;;;;;;48.20;20.64;99379.91;432714;1268;138649;-67
2023/09/01 08:40:19;;;;;;;2.10;0.90;;;;;;;44.68;20.56;99375.56;432181;1266;138465;-67
2023/09/01 08:50:25;;;;;;;2.50;1.00;;;;;;;37.35;22.39;99369.58;432188;1267;138613;-66
2023/09/01 09:00:31;;;;;;;2.30;1.00;;;;;;;32.55;25.65;99371.62;432367;1264;139182;-66
2023/09/01 09:10:40;;;;;;;3.00;1.00;;;;;;;29.40;28.26;99382.33;432332;1264;139074;-66
2023/09/01 09:20:47;;;;;;;2.70;1.10;;;;;;;27.27;30.93;99386.63;432346;1265;138961;-66
2023/09/01 09:30:52;;;;;;;;;;;;;;;26.15;32.87;99387.31;432967;1264;139034;-65
2023/09/01 09:41:02;;;;;;;2.90;1.20;;;;;;;25.47;34.50;99392.91;433005;1265;125934;-67
2023/09/01 09:51:10;;;;;;;1.40;0.80;;;;;;;25.04;35.58;99393.07;432710;1265;138631;-68
2023/09/01 10:01:23;;;;;;;1.50;1.20;;;;;;;24.69;36.50;99394.64;432466;1265;138443;-66
2023/09/01 10:11:30;;;;;;;1.90;1.00;;;;;;;24.51;37.44;99398.98;432283;1264;139440;-67
2023/09/01 10:21:40;;;;;;;1.00;0.70;;;;;;;24.36;37.96;99401.20;432222;1265;139231;-66
2023/09/01 10:31:47;;;;;;;3.00;1.30;;;;;;;24.06;38.56;99400.48;432361;1267;139211;-66
2023/09/01 10:41:58;;;;;;;;;;;;;;;23.89;38.98;99401.25;432669;1265;138718;-67
2023/09/01 10:52:14;;;;;;;2.00;1.50;;;;;;;23.61;39.53;99396.64;432288;1265;125357;-65
2023/09/01 11:02:22;;;;;;;2.10;1.00;;;;;;;23.50;39.97;99392.11;432215;1267;140061;-66
2023/09/01 11:12:33;;;;;;;5.40;1.20;;;;;;;23.46;40.04;99391.53;432537;1264;138931;-66
2023/09/01 11:22:41;;;;;;;4.90;1.30;;;;;;;23.12;40.19;99385.92;432401;1265;138623;-66
2023/09/01 11:32:48;;;;;;;2.00;1.40;;;;;;;22.92;40.70;99387.25;432769;1264;138722;-66
2023/09/01 11:42:55;;;;;;;5.30;1.60;;;;;;;22.96;40.95;99387.27;432499;1264;138734;-66
2023/09/01 11:53:00;;;;;;;3.40;1.30;;;;;;;22.71;41.32;99400.04;432934;1264;139236;-67
2023/09/01 12:03:06;;;;;;;2.60;1.40;;;;;;;22.36;42.03;99393.05;432013;1267;339631;-67
2023/09/01 12:13:13;;;;;;;2.20;1.40;;;;;;;22.58;42.59;99383.58;433058;1268;140247;-68
2023/09/01 12:23:28;;;;;;;3.60;1.00;;;;;;;22.55;42.62;99381.98;433041;1267;139004;-66
2023/09/01 12:33:34;;;;;;;4.00;1.20;;;;;;;22.27;43.00;99382.63;432879;1267;138480;-66
2023/09/01 12:43:42;;;;;;;4.30;1.40;;;;;;;22.29;43.53;99383.70;432429;1267;138519;-65
2023/09/01 12:53:48;;;;;;;2.40;1.10;;;;;;;22.64;43.00;99381.61;432591;1265;138468;-67
2023/09/01 13:03:54;;;;;;;4.30;1.20;;;;;;;22.72;42.91;99378.50;432175;1270;138639;-66
2023/09/01 13:14:00;;;;;;;4.90;2.60;;;;;;;22.49;42.65;99378.20;432246;1269;139285;-66
2023/09/01 13:24:07;;;;;;;7.30;2.90;;;;;;;22.13;43.06;99377.52;432239;1268;138478;-67
2023/09/01 13:34:13;;;;;;;2.00;1.70;;;;;;;21.97;43.49;99376.43;432286;1270;138702;-66
2023/09/01 13:44:19;;;;;;;2.10;1.20;;;;;;;21.80;43.50;99371.71;432237;1265;140484;-67
2023/09/01 13:54:25;;;;;;;3.40;1.70;;;;;;;21.73;43.79;99371.24;432511;1265;140767;-67
2023/09/01 14:04:31;;;;;;;5.10;2.30;;;;;;;21.63;43.97;99374.98;432734;1267;138662;-66
2023/09/01 14:14:37;;;;;;;3.90;1.20;;;;;;;21.48;44.28;99375.06;432490;1267;138448;-66
2023/09/01 14:24:43;;;;;;;2.20;1.30;;;;;;;21.51;44.10;99377.29;432347;1267;139391;-66
2023/09/01 14:34:48;;;;;;;5.50;1.80;;;;;;;21.36;44.16;99383.56;432274;1265;138743;-67
2023/09/01 14:44:54;;;;;;;2.60;1.40;;;;;;;21.20;44.51;99379.66;432186;1268;139559;-67
2023/09/01 14:55:00;;;;;;;1.60;0.90;;;;;;;20.92;45.00;99384.73;432313;1270;138598;-67
2023/09/01 15:05:06;;;;;;;3.60;1.60;;;;;;;20.87;45.47;99387.14;432100;1267;139280;-66
2023/09/01 15:15:13;;;;;;;3.60;1.70;;;;;;;20.65;45.52;99398.06;432770;1268;138626;-66
2023/09/01 15:25:19;;;;;;;5.40;1.70;;;;;;;20.65;45.91;99388.12;433031;1270;139759;-67
2023/09/01 15:35:25;;;;;;;2.60;1.40;;;;;;;20.51;45.73;99393.77;432786;1270;139231;-68
2023/09/01 15:45:45;;;;;;;2.60;1.20;;;;;;;20.29;46.54;99388.41;432440;1268;139720;-68
2023/09/01 15:55:53;;;;;;;4.80;1.50;;;;;;;20.11;47.08;99394.60;432618;1267;138474;-67
2023/09/01 16:06:00;;;;;;;4.50;1.70;;;;;;;20.00;47.75;99397.77;433075;1267;139139;-66
2023/09/01 16:16:06;;;;;;;8.20;2.10;;;;;;;19.92;48.60;99396.05;432622;1265;139510;-66
2023/09/01 16:26:12;;;;;;;3.10;1.80;;;;;;;19.81;49.59;99390.99;432293;1267;140587;-67
2023/09/01 16:36:18;;;;;;;4.60;1.90;;;;;;;19.52;51.15;99390.85;432860;1268;138605;-66
2023/09/01 16:46:24;;;;;;;3.30;2.00;;;;;;;19.09;52.91;99385.36;432314;1265;139880;-67
2023/09/01 16:56:30;;;;;;;2.90;2.00;;;;;;;18.64;54.58;99391.05;432393;1267;140350;-66
2023/09/01 17:06:36;;;;;;;7.00;3.00;;;;;;;18.22;55.83;99379.91;432560;1265;138731;-66
2023/09/01 17:16:42;;;;;;;4.90;2.00;;;;;;;17.88;57.49;99389.23;432292;1267;138595;-66
2023/09/01 17:26:48;;;;;;;13.60;4.40;;;;;;;17.53;58.83;99404.73;432224;1268;138560;-65
2023/09/01 17:36:54;;;;;;;10.40;3.40;;;;;;;17.22;60.85;99402.37;431887;1268;140357;-66
2023/09/01 17:47:00;;;;;;;8.50;3.70;;;;;;;16.92;62.25;99402.84;431552;1267;141373;-66
2023/09/01 17:57:07;;;;;;;13.60;5.20;;;;;;;16.62;63.35;99412.80;432174;1269;139981;-65
2023/09/01 18:07:14;;;;;;;12.10;4.40;;;;;;;16.37;64.87;99430.31;432307;1270;139450;-66
2023/09/01 18:17:21;;;;;;;8.20;4.60;;;;;;;16.10;66.12;99433.59;432723;1269;139445;-65
2023/09/01 18:27:30;;;;;;;13.00;5.00;;;;;;;15.83;66.98;99438.05;432735;1269;139326;-65
2023/09/01 18:37:38;;;;;;;13.00;4.50;;;;;;;15.56;67.77;99447.30;432489;1270;140649;-65
2023/09/01 18:47:43;;;;;;;12.50;5.60;;;;;;;15.30;69.10;99448.30;432423;1265;139413;-66
2023/09/01 18:57:51;;;;;;;10.10;5.50;;;;;;;15.07;70.25;99453.21;432218;1268;140188;-67
2023/09/01 19:08:01;;;;;;;10.80;5.10;;;;;;;14.89;71.20;99454.77;432274;1265;141005;-66
2023/09/01 19:18:10;;;;;;;9.70;5.50;;;;;;;14.73;71.94;99455.88;432246;1267;139592;-65
2023/09/01 19:28:16;;;;;;;10.70;5.60;;;;;;;14.61;72.63;99464.75;432335;1268;140160;-65
2023/09/01 19:38:42;;;;;;;12.10;5.80;;;;;;;14.51;73.55;99473.18;432266;1268;139536;-65
2023/09/01 19:48:48;;;;;;;14.00;7.60;;;;;;;14.40;74.27;99482.15;432275;1269;139765;-67
2023/09/01 19:58:57;;;;;;;10.90;7.50;;;;;;;14.35;75.23;99474.32;432345;1268;141160;-67
2023/09/01 20:09:11;;;;;;;14.60;7.10;;;;;;;14.30;75.91;99478.23;432463;1268;139576;-68
2023/09/01 20:19:21;;;;;;;12.10;6.50;;;;;;;14.26;76.72;99488.01;432387;1265;139503;-65
2023/09/01 20:29:27;;;;;;;13.60;9.10;;;;;;;14.20;77.28;99489.20;432642;1270;139811;-66
2023/09/01 20:39:34;;;;;;;9.30;7.00;;;;;;;14.11;77.68;99493.63;432469;1265;139906;-69
2023/09/01 20:49:40;;;;;;;13.40;8.40;;;;;;;14.03;78.20;99500.08;432712;1269;140894;-66
2023/09/01 20:59:47;;;;;;;14.10;10.30;;;;;;;13.98;78.81;99499.95;433065;1268;139521;-66
2023/09/01 21:09:52;;;;;;;14.70;11.00;;;;;;;13.91;79.12;99507.40;432861;1268;140655;-66
2023/09/01 21:19:59;;;;;;;11.90;8.30;;;;;;;13.84;79.72;99509.70;432987;1268;139755;-67
2023/09/01 21:30:18;;;;;;;13.80;9.60;;;;;;;13.72;80.20;99510.98;433303;1265;139826;-66
2023/09/01 21:40:24;;;;;;;11.80;7.10;;;;;;;13.61;80.92;99514.99;432996;1269;139868;-66
2023/09/01 21:50:30;;;;;;;11.00;6.20;;;;;;;13.60;81.73;99518.77;432453;1270;142955;-66
2023/09/01 22:00:36;;;;;;;8.10;6.60;;;;;;;13.64;82.18;99525.33;433049;1267;139516;-65
2023/09/01 22:10:42;;;;;;;8.10;5.90;;;;;;;13.70;82.06;99521.50;432221;1270;140420;-66
2023/09/01 22:20:47;;;;;;;11.00;7.10;;;;;;;13.73;82.41;99520.20;432252;1267;140323;-68
2023/09/01 22:30:53;;;;;;;10.90;6.50;;;;;;;13.76;82.69;99521.06;432516;1270;141452;-67
2023/09/01 22:41:00;;;;;;;9.30;7.50;;;;;;;13.78;82.98;99518.02;432285;1267;140454;-66
2023/09/01 22:51:06;;;;;;;7.40;6.00;;;;;;;13.80;83.64;99517.21;432803;1269;139398;-66
2023/09/01 23:01:12;;;;;;;6.80;5.70;;;;;;;13.83;84.16;99520.52;432528;1269;140290;-67
2023/09/01 23:11:19;;;;;;;7.90;5.20;;;;;;;13.82;84.34;99522.45;432422;1267;139479;-66
2023/09/01 23:21:25;;;;;;;7.00;5.30;;;;;;;13.86;84.37;99518.16;432268;1269;140483;-65
2023/09/01 23:31:31;;;;;;;8.80;7.00;;;;;;;13.89;84.23;99507.70;432347;1265;139177;-67
2023/09/01 23:41:37;;;;;;;6.10;4.70;;;;;;;13.92;84.21;99506.38;432329;1267;139230;-67
2023/09/01 23:51:43;;;;;;;13.40;7.30;;;;;;;13.96;84.50;99502.56;431665;1269;140047;-67
